sensor_id;sensor_type;location;lat;lon;timestamp;temperature;humidity
17066;DHT22;23120;52.336;21.182;2022-09-09T00:02:14;13.90;76.40
17066;DHT22;23120;52.336;21.182;2022-09-09T00:04:51;13.90;76.60
17066;DHT22;23120;52.336;21.182;2022-09-09T00:07:27;13.90;75.80
17066;DHT22;23120;52.336;21.182;2022-09-09T00:10:03;13.80;77.00
17066;DHT22;23120;52.336;21.182;2022-09-09T00:12:40;13.80;76.70
17066;DHT22;23120;52.336;21.182;2022-09-09T00:15:13;13.80;77.50
17066;DHT22;23120;52.336;21.182;2022-09-09T00:17:45;13.70;77.20
17066;DHT22;23120;52.336;21.182;2022-09-09T00:20:20;13.70;77.30
17066;DHT22;23120;52.336;21.182;2022-09-09T00:22:55;13.60;77.20
17066;DHT22;23120;52.336;21.182;2022-09-09T00:25:29;13.60;79.00
17066;DHT22;23120;52.336;21.182;2022-09-09T00:27:59;13.50;78.30
17066;DHT22;23120;52.336;21.182;2022-09-09T00:30:29;13.50;78.70
17066;DHT22;23120;52.336;21.182;2022-09-09T00:33:00;13.50;79.40
17066;DHT22;23120;52.336;21.182;2022-09-09T00:35:32;13.50;78.60
17066;DHT22;23120;52.336;21.182;2022-09-09T00:38:03;13.40;79.20
17066;DHT22;23120;52.336;21.182;2022-09-09T00:40:35;13.40;78.60
17066;DHT22;23120;52.336;21.182;2022-09-09T00:43:18;13.40;79.70
17066;DHT22;23120;52.336;21.182;2022-09-09T00:45:59;13.30;79.30
17066;DHT22;23120;52.336;21.182;2022-09-09T00:48:37;13.30;80.10
17066;DHT22;23120;52.336;21.182;2022-09-09T00:51:14;13.30;79.60
17066;DHT22;23120;52.336;21.182;2022-09-09T00:53:58;13.30;79.60
17066;DHT22;23120;52.336;21.182;2022-09-09T00:56:35;13.20;80.30
17066;DHT22;23120;52.336;21.182;2022-09-09T00:59:16;13.20;80.20
17066;DHT22;23120;52.336;21.182;2022-09-09T01:01:46;13.20;81.70
17066;DHT22;23120;52.336;21.182;2022-09-09T01:04:16;13.10;81.00
17066;DHT22;23120;52.336;21.182;2022-09-09T01:06:50;13.10;80.90
17066;DHT22;23120;52.336;21.182;2022-09-09T01:09:21;13.10;81.20
17066;DHT22;23120;52.336;21.182;2022-09-09T01:11:55;13.10;81.50
17066;DHT22;23120;52.336;21.182;2022-09-09T01:14:37;13.10;81.60
17066;DHT22;23120;52.336;21.182;2022-09-09T01:17:12;13.10;81.20
17066;DHT22;23120;52.336;21.182;2022-09-09T01:19:52;13.10;80.90
17066;DHT22;23120;52.336;21.182;2022-09-09T01:22:29;13.10;81.40
17066;DHT22;23120;52.336;21.182;2022-09-09T01:25:19;13.00;81.30
17066;DHT22;23120;52.336;21.182;2022-09-09T01:27:58;13.00;80.90
17066;DHT22;23120;52.336;21.182;2022-09-09T01:30:26;13.00;81.20
17066;DHT22;23120;52.336;21.182;2022-09-09T01:32:57;13.00;80.70
17066;DHT22;23120;52.336;21.182;2022-09-09T01:35:37;13.00;81.40
17066;DHT22;23120;52.336;21.182;2022-09-09T01:38:06;13.00;81.90
17066;DHT22;23120;52.336;21.182;2022-09-09T01:40:34;13.00;81.50
17066;DHT22;23120;52.336;21.182;2022-09-09T01:43:02;13.00;80.30
17066;DHT22;23120;52.336;21.182;2022-09-09T01:45:30;13.00;81.20
17066;DHT22;23120;52.336;21.182;2022-09-09T01:47:57;13.00;81.00
17066;DHT22;23120;52.336;21.182;2022-09-09T01:50:38;13.00;82.50
17066;DHT22;23120;52.336;21.182;2022-09-09T01:53:06;12.90;83.10
17066;DHT22;23120;52.336;21.182;2022-09-09T01:55:38;12.90;82.50
17066;DHT22;23120;52.336;21.182;2022-09-09T01:58:22;12.90;82.90
17066;DHT22;23120;52.336;21.182;2022-09-09T02:01:00;12.90;83.10
17066;DHT22;23120;52.336;21.182;2022-09-09T02:03:29;12.90;82.00
17066;DHT22;23120;52.336;21.182;2022-09-09T02:06:17;12.90;83.30
17066;DHT22;23120;52.336;21.182;2022-09-09T02:08:55;12.90;83.10
17066;DHT22;23120;52.336;21.182;2022-09-09T02:11:25;12.90;83.00
17066;DHT22;23120;52.336;21.182;2022-09-09T02:14:06;12.80;83.50
17066;DHT22;23120;52.336;21.182;2022-09-09T02:16:42;12.90;83.10
17066;DHT22;23120;52.336;21.182;2022-09-09T02:19:13;12.90;83.00
17066;DHT22;23120;52.336;21.182;2022-09-09T02:21:55;12.80;83.50
17066;DHT22;23120;52.336;21.182;2022-09-09T02:24:25;12.80;82.70
17066;DHT22;23120;52.336;21.182;2022-09-09T02:27:05;12.90;82.60
17066;DHT22;23120;52.336;21.182;2022-09-09T02:29:39;12.90;82.90
17066;DHT22;23120;52.336;21.182;2022-09-09T02:32:11;12.90;82.80
17066;DHT22;23120;52.336;21.182;2022-09-09T02:34:42;12.90;83.20
17066;DHT22;23120;52.336;21.182;2022-09-09T02:37:11;12.90;83.10
17066;DHT22;23120;52.336;21.182;2022-09-09T02:39:43;12.90;82.00
17066;DHT22;23120;52.336;21.182;2022-09-09T02:42:14;12.90;82.70
17066;DHT22;23120;52.336;21.182;2022-09-09T02:44:44;12.90;83.40
17066;DHT22;23120;52.336;21.182;2022-09-09T02:47:20;12.90;83.60
17066;DHT22;23120;52.336;21.182;2022-09-09T02:49:57;12.80;83.90
17066;DHT22;23120;52.336;21.182;2022-09-09T02:52:33;12.80;83.00
17066;DHT22;23120;52.336;21.182;2022-09-09T02:55:08;12.80;84.40
17066;DHT22;23120;52.336;21.182;2022-09-09T02:57:39;12.80;84.00
17066;DHT22;23120;52.336;21.182;2022-09-09T03:00:11;12.90;83.60
17066;DHT22;23120;52.336;21.182;2022-09-09T03:02:38;12.90;83.00
17066;DHT22;23120;52.336;21.182;2022-09-09T03:05:06;12.80;83.20
17066;DHT22;23120;52.336;21.182;2022-09-09T03:07:33;12.90;83.60
17066;DHT22;23120;52.336;21.182;2022-09-09T03:10:00;12.90;83.40
17066;DHT22;23120;52.336;21.182;2022-09-09T03:12:27;12.90;83.80
17066;DHT22;23120;52.336;21.182;2022-09-09T03:14:54;12.90;83.80
17066;DHT22;23120;52.336;21.182;2022-09-09T03:17:24;12.80;84.00
17066;DHT22;23120;52.336;21.182;2022-09-09T03:19:54;12.80;84.40
17066;DHT22;23120;52.336;21.182;2022-09-09T03:22:23;12.90;84.00
17066;DHT22;23120;52.336;21.182;2022-09-09T03:24:50;12.90;84.30
17066;DHT22;23120;52.336;21.182;2022-09-09T03:27:18;12.80;84.10
17066;DHT22;23120;52.336;21.182;2022-09-09T03:29:45;12.80;84.50
17066;DHT22;23120;52.336;21.182;2022-09-09T03:32:18;12.80;84.40
17066;DHT22;23120;52.336;21.182;2022-09-09T03:34:49;12.80;84.40
17066;DHT22;23120;52.336;21.182;2022-09-09T03:37:17;12.80;85.30
17066;DHT22;23120;52.336;21.182;2022-09-09T03:39:44;12.80;83.90
17066;DHT22;23120;52.336;21.182;2022-09-09T03:42:13;12.80;83.30
17066;DHT22;23120;52.336;21.182;2022-09-09T03:44:44;12.80;83.90
17066;DHT22;23120;52.336;21.182;2022-09-09T03:47:12;12.80;83.80
17066;DHT22;23120;52.336;21.182;2022-09-09T03:49:39;12.90;84.30
17066;DHT22;23120;52.336;21.182;2022-09-09T03:52:08;12.90;83.90
17066;DHT22;23120;52.336;21.182;2022-09-09T03:54:37;12.90;84.30
17066;DHT22;23120;52.336;21.182;2022-09-09T03:57:05;12.80;84.00
17066;DHT22;23120;52.336;21.182;2022-09-09T03:59:32;12.90;84.70
17066;DHT22;23120;52.336;21.182;2022-09-09T04:02:01;12.80;84.90
17066;DHT22;23120;52.336;21.182;2022-09-09T04:04:27;12.80;83.90
17066;DHT22;23120;52.336;21.182;2022-09-09T04:06:55;12.90;83.60
17066;DHT22;23120;52.336;21.182;2022-09-09T04:09:24;12.80;85.00
17066;DHT22;23120;52.336;21.182;2022-09-09T04:11:51;12.80;85.40
17066;DHT22;23120;52.336;21.182;2022-09-09T04:14:20;12.80;85.70
17066;DHT22;23120;52.336;21.182;2022-09-09T04:16:47;12.80;85.40
17066;DHT22;23120;52.336;21.182;2022-09-09T04:19:14;12.80;84.60
17066;DHT22;23120;52.336;21.182;2022-09-09T04:21:43;12.90;83.80
17066;DHT22;23120;52.336;21.182;2022-09-09T04:24:10;12.90;84.60
17066;DHT22;23120;52.336;21.182;2022-09-09T04:26:39;12.90;85.00
17066;DHT22;23120;52.336;21.182;2022-09-09T04:29:06;12.80;83.80
17066;DHT22;23120;52.336;21.182;2022-09-09T04:31:34;12.80;84.60
17066;DHT22;23120;52.336;21.182;2022-09-09T04:34:01;12.80;84.50
17066;DHT22;23120;52.336;21.182;2022-09-09T04:36:31;12.90;84.80
17066;DHT22;23120;52.336;21.182;2022-09-09T04:39:01;12.90;84.50
17066;DHT22;23120;52.336;21.182;2022-09-09T04:41:28;12.90;85.00
17066;DHT22;23120;52.336;21.182;2022-09-09T04:43:58;12.90;84.80
17066;DHT22;23120;52.336;21.182;2022-09-09T04:46:26;12.90;84.40
17066;DHT22;23120;52.336;21.182;2022-09-09T04:48:53;12.90;85.00
17066;DHT22;23120;52.336;21.182;2022-09-09T04:51:21;12.80;85.40
17066;DHT22;23120;52.336;21.182;2022-09-09T04:53:50;12.90;85.00
17066;DHT22;23120;52.336;21.182;2022-09-09T04:56:19;12.90;85.60
17066;DHT22;23120;52.336;21.182;2022-09-09T04:58:50;12.90;85.40
17066;DHT22;23120;52.336;21.182;2022-09-09T05:01:22;12.90;85.00
17066;DHT22;23120;52.336;21.182;2022-09-09T05:03:51;12.90;84.50
17066;DHT22;23120;52.336;21.182;2022-09-09T05:06:21;12.90;85.00
17066;DHT22;23120;52.336;21.182;2022-09-09T05:08:53;12.90;83.90
17066;DHT22;23120;52.336;21.182;2022-09-09T05:11:25;12.90;84.50
17066;DHT22;23120;52.336;21.182;2022-09-09T05:13:58;12.90;85.60
17066;DHT22;23120;52.336;21.182;2022-09-09T05:16:26;12.90;85.00
17066;DHT22;23120;52.336;21.182;2022-09-09T05:18:53;12.90;84.70
17066;DHT22;23120;52.336;21.182;2022-09-09T05:21:22;12.90;86.00
17066;DHT22;23120;52.336;21.182;2022-09-09T05:23:50;12.90;86.10
17066;DHT22;23120;52.336;21.182;2022-09-09T05:26:19;13.00;86.30
17066;DHT22;23120;52.336;21.182;2022-09-09T05:28:48;13.00;85.60
17066;DHT22;23120;52.336;21.182;2022-09-09T05:31:17;12.90;85.70
17066;DHT22;23120;52.336;21.182;2022-09-09T05:33:48;13.00;85.50
17066;DHT22;23120;52.336;21.182;2022-09-09T05:36:17;13.00;85.60
17066;DHT22;23120;52.336;21.182;2022-09-09T05:38:46;13.00;85.60
17066;DHT22;23120;52.336;21.182;2022-09-09T05:41:14;13.00;85.10
17066;DHT22;23120;52.336;21.182;2022-09-09T05:43:41;13.10;84.90
17066;DHT22;23120;52.336;21.182;2022-09-09T05:46:11;13.00;85.20
17066;DHT22;23120;52.336;21.182;2022-09-09T05:48:40;13.00;85.00
17066;DHT22;23120;52.336;21.182;2022-09-09T05:51:21;13.10;84.40
17066;DHT22;23120;52.336;21.182;2022-09-09T05:53:49;13.10;84.40
17066;DHT22;23120;52.336;21.182;2022-09-09T05:56:19;13.10;84.70
17066;DHT22;23120;52.336;21.182;2022-09-09T05:58:47;13.10;85.70
17066;DHT22;23120;52.336;21.182;2022-09-09T06:01:16;13.10;84.60
17066;DHT22;23120;52.336;21.182;2022-09-09T06:03:45;13.10;84.70
17066;DHT22;23120;52.336;21.182;2022-09-09T06:06:15;13.10;86.10
17066;DHT22;23120;52.336;21.182;2022-09-09T06:08:44;13.10;85.80
17066;DHT22;23120;52.336;21.182;2022-09-09T06:11:14;13.10;85.00
17066;DHT22;23120;52.336;21.182;2022-09-09T06:13:42;13.20;86.00
17066;DHT22;23120;52.336;21.182;2022-09-09T06:16:09;13.10;86.10
17066;DHT22;23120;52.336;21.182;2022-09-09T06:18:38;13.10;85.90
17066;DHT22;23120;52.336;21.182;2022-09-09T06:21:07;13.20;85.80
17066;DHT22;23120;52.336;21.182;2022-09-09T06:23:35;13.20;86.10
17066;DHT22;23120;52.336;21.182;2022-09-09T06:26:05;13.20;85.00
17066;DHT22;23120;52.336;21.182;2022-09-09T06:28:34;13.20;84.80
17066;DHT22;23120;52.336;21.182;2022-09-09T06:31:04;13.20;85.10
17066;DHT22;23120;52.336;21.182;2022-09-09T06:33:32;13.20;84.70
17066;DHT22;23120;52.336;21.182;2022-09-09T06:36:02;13.30;85.00
17066;DHT22;23120;52.336;21.182;2022-09-09T06:38:31;13.30;85.10
17066;DHT22;23120;52.336;21.182;2022-09-09T06:40:59;13.30;84.80
17066;DHT22;23120;52.336;21.182;2022-09-09T06:43:29;13.30;84.70
17066;DHT22;23120;52.336;21.182;2022-09-09T06:45:57;13.40;84.70
17066;DHT22;23120;52.336;21.182;2022-09-09T06:48:25;13.30;85.00
17066;DHT22;23120;52.336;21.182;2022-09-09T06:51:01;13.40;84.50
17066;DHT22;23120;52.336;21.182;2022-09-09T06:53:29;13.40;84.80
17066;DHT22;23120;52.336;21.182;2022-09-09T06:55:56;13.40;84.80
17066;DHT22;23120;52.336;21.182;2022-09-09T06:58:23;13.40;85.20
17066;DHT22;23120;52.336;21.182;2022-09-09T07:01:00;13.40;85.30
17066;DHT22;23120;52.336;21.182;2022-09-09T07:03:27;13.40;86.90
17066;DHT22;23120;52.336;21.182;2022-09-09T07:05:54;13.40;85.60
17066;DHT22;23120;52.336;21.182;2022-09-09T07:08:23;13.50;85.20
17066;DHT22;23120;52.336;21.182;2022-09-09T07:10:51;13.50;85.40
17066;DHT22;23120;52.336;21.182;2022-09-09T07:13:20;13.50;85.00
17066;DHT22;23120;52.336;21.182;2022-09-09T07:15:50;13.60;85.20
17066;DHT22;23120;52.336;21.182;2022-09-09T07:18:19;13.60;85.10
17066;DHT22;23120;52.336;21.182;2022-09-09T07:20:53;13.60;84.80
17066;DHT22;23120;52.336;21.182;2022-09-09T07:23:22;13.60;85.10
17066;DHT22;23120;52.336;21.182;2022-09-09T07:25:49;13.60;86.00
17066;DHT22;23120;52.336;21.182;2022-09-09T07:28:17;13.60;85.70
17066;DHT22;23120;52.336;21.182;2022-09-09T07:30:52;13.60;85.90
17066;DHT22;23120;52.336;21.182;2022-09-09T07:33:20;13.60;86.40
17066;DHT22;23120;52.336;21.182;2022-09-09T07:35:47;13.70;85.10
17066;DHT22;23120;52.336;21.182;2022-09-09T07:38:14;13.70;85.80
17066;DHT22;23120;52.336;21.182;2022-09-09T07:40:41;13.70;85.70
17066;DHT22;23120;52.336;21.182;2022-09-09T07:43:08;13.70;85.50
17066;DHT22;23120;52.336;21.182;2022-09-09T07:45:36;13.80;85.40
17066;DHT22;23120;52.336;21.182;2022-09-09T07:48:04;13.80;85.40
17066;DHT22;23120;52.336;21.182;2022-09-09T07:50:34;13.80;85.00
17066;DHT22;23120;52.336;21.182;2022-09-09T07:53:01;13.80;85.30
17066;DHT22;23120;52.336;21.182;2022-09-09T07:55:31;13.80;87.00
17066;DHT22;23120;52.336;21.182;2022-09-09T07:57:58;13.80;86.50
17066;DHT22;23120;52.336;21.182;2022-09-09T08:00:25;13.80;85.90
17066;DHT22;23120;52.336;21.182;2022-09-09T08:02:56;13.80;85.70
17066;DHT22;23120;52.336;21.182;2022-09-09T08:05:22;13.90;85.50
17066;DHT22;23120;52.336;21.182;2022-09-09T08:07:51;13.90;85.80
17066;DHT22;23120;52.336;21.182;2022-09-09T08:10:18;13.90;86.80
17066;DHT22;23120;52.336;21.182;2022-09-09T08:12:47;13.90;85.70
17066;DHT22;23120;52.336;21.182;2022-09-09T08:15:14;13.90;87.50
17066;DHT22;23120;52.336;21.182;2022-09-09T08:17:41;14.00;86.10
17066;DHT22;23120;52.336;21.182;2022-09-09T08:20:09;14.00;86.10
17066;DHT22;23120;52.336;21.182;2022-09-09T08:22:37;14.00;87.40
17066;DHT22;23120;52.336;21.182;2022-09-09T08:25:06;14.00;86.90
17066;DHT22;23120;52.336;21.182;2022-09-09T08:27:35;14.00;86.40
17066;DHT22;23120;52.336;21.182;2022-09-09T08:30:03;14.10;85.60
17066;DHT22;23120;52.336;21.182;2022-09-09T08:32:30;14.10;86.00
17066;DHT22;23120;52.336;21.182;2022-09-09T08:34:57;14.10;86.50
17066;DHT22;23120;52.336;21.182;2022-09-09T08:37:24;14.10;86.70
17066;DHT22;23120;52.336;21.182;2022-09-09T08:39:51;14.20;86.00
17066;DHT22;23120;52.336;21.182;2022-09-09T08:42:29;14.20;85.80
17066;DHT22;23120;52.336;21.182;2022-09-09T08:45:09;14.20;86.00
17066;DHT22;23120;52.336;21.182;2022-09-09T08:47:44;14.30;85.90
17066;DHT22;23120;52.336;21.182;2022-09-09T08:50:19;14.30;86.50
17066;DHT22;23120;52.336;21.182;2022-09-09T08:52:55;14.30;85.80
17066;DHT22;23120;52.336;21.182;2022-09-09T08:55:29;14.30;86.70
17066;DHT22;23120;52.336;21.182;2022-09-09T08:58:09;14.30;86.50
17066;DHT22;23120;52.336;21.182;2022-09-09T09:00:51;14.30;87.60
17066;DHT22;23120;52.336;21.182;2022-09-09T09:03:27;14.30;86.30
17066;DHT22;23120;52.336;21.182;2022-09-09T09:06:00;14.30;87.40
17066;DHT22;23120;52.336;21.182;2022-09-09T09:08:33;14.30;86.10
17066;DHT22;23120;52.336;21.182;2022-09-09T09:11:00;14.40;85.80
17066;DHT22;23120;52.336;21.182;2022-09-09T09:13:37;14.40;85.70
17066;DHT22;23120;52.336;21.182;2022-09-09T09:16:14;14.40;86.20
17066;DHT22;23120;52.336;21.182;2022-09-09T09:18:44;14.40;85.40
17066;DHT22;23120;52.336;21.182;2022-09-09T09:21:13;14.50;85.20
17066;DHT22;23120;52.336;21.182;2022-09-09T09:23:48;14.50;84.80
17066;DHT22;23120;52.336;21.182;2022-09-09T09:26:19;14.50;85.80
17066;DHT22;23120;52.336;21.182;2022-09-09T09:28:50;14.60;86.00
17066;DHT22;23120;52.336;21.182;2022-09-09T09:31:20;14.60;86.20
17066;DHT22;23120;52.336;21.182;2022-09-09T09:33:49;14.60;85.50
17066;DHT22;23120;52.336;21.182;2022-09-09T09:36:20;14.60;86.00
17066;DHT22;23120;52.336;21.182;2022-09-09T09:38:55;14.60;86.10
17066;DHT22;23120;52.336;21.182;2022-09-09T09:41:30;14.70;85.70
17066;DHT22;23120;52.336;21.182;2022-09-09T09:43:59;14.60;87.00
17066;DHT22;23120;52.336;21.182;2022-09-09T09:46:29;14.60;86.40
17066;DHT22;23120;52.336;21.182;2022-09-09T09:49:05;14.70;86.00
17066;DHT22;23120;52.336;21.182;2022-09-09T09:51:36;14.70;85.50
17066;DHT22;23120;52.336;21.182;2022-09-09T09:54:09;14.70;85.70
17066;DHT22;23120;52.336;21.182;2022-09-09T09:56:42;14.70;85.40
17066;DHT22;23120;52.336;21.182;2022-09-09T09:59:22;14.70;86.40
17066;DHT22;23120;52.336;21.182;2022-09-09T10:01:50;14.70;86.60
17066;DHT22;23120;52.336;21.182;2022-09-09T10:04:19;14.70;86.90
17066;DHT22;23120;52.336;21.182;2022-09-09T10:06:50;14.70;86.40
17066;DHT22;23120;52.336;21.182;2022-09-09T10:09:23;14.70;85.50
17066;DHT22;23120;52.336;21.182;2022-09-09T10:11:55;14.80;85.70
17066;DHT22;23120;52.336;21.182;2022-09-09T10:14:30;14.80;86.10
17066;DHT22;23120;52.336;21.182;2022-09-09T10:17:10;14.80;85.80
17066;DHT22;23120;52.336;21.182;2022-09-09T10:19:45;14.80;86.30
17066;DHT22;23120;52.336;21.182;2022-09-09T10:22:25;14.80;86.30
17066;DHT22;23120;52.336;21.182;2022-09-09T10:30:56;14.80;86.40
17066;DHT22;23120;52.336;21.182;2022-09-09T10:33:30;14.90;86.00
17066;DHT22;23120;52.336;21.182;2022-09-09T10:36:05;14.90;86.10
17066;DHT22;23120;52.336;21.182;2022-09-09T10:38:39;14.90;87.10
17066;DHT22;23120;52.336;21.182;2022-09-09T10:41:19;14.90;86.00
17066;DHT22;23120;52.336;21.182;2022-09-09T10:44:14;14.90;86.10
17066;DHT22;23120;52.336;21.182;2022-09-09T10:46:56;15.00;86.00
17066;DHT22;23120;52.336;21.182;2022-09-09T10:49:42;15.00;85.90
17066;DHT22;23120;52.336;21.182;2022-09-09T10:52:17;15.00;86.20
17066;DHT22;23120;52.336;21.182;2022-09-09T10:54:54;15.00;86.60
17066;DHT22;23120;52.336;21.182;2022-09-09T10:57:28;15.00;86.20
17066;DHT22;23120;52.336;21.182;2022-09-09T11:00:01;15.00;86.00
17066;DHT22;23120;52.336;21.182;2022-09-09T11:02:32;15.00;86.00
17066;DHT22;23120;52.336;21.182;2022-09-09T11:05:03;15.00;85.60
17066;DHT22;23120;52.336;21.182;2022-09-09T11:07:36;15.00;86.40
17066;DHT22;23120;52.336;21.182;2022-09-09T11:10:12;15.00;85.60
17066;DHT22;23120;52.336;21.182;2022-09-09T11:12:42;15.00;86.10
17066;DHT22;23120;52.336;21.182;2022-09-09T11:15:17;15.00;86.90
17066;DHT22;23120;52.336;21.182;2022-09-09T11:17:50;15.00;85.60
17066;DHT22;23120;52.336;21.182;2022-09-09T11:20:20;15.00;85.80
17066;DHT22;23120;52.336;21.182;2022-09-09T11:22:50;15.00;85.80
17066;DHT22;23120;52.336;21.182;2022-09-09T11:25:22;15.00;86.00
17066;DHT22;23120;52.336;21.182;2022-09-09T11:27:59;15.00;85.30
17066;DHT22;23120;52.336;21.182;2022-09-09T11:30:33;15.10;85.40
17066;DHT22;23120;52.336;21.182;2022-09-09T11:33:18;15.00;85.00
17066;DHT22;23120;52.336;21.182;2022-09-09T11:36:01;15.00;86.30
17066;DHT22;23120;52.336;21.182;2022-09-09T11:38:37;15.00;85.60
17066;DHT22;23120;52.336;21.182;2022-09-09T11:41:07;15.10;86.20
17066;DHT22;23120;52.336;21.182;2022-09-09T11:43:40;15.10;85.80
17066;DHT22;23120;52.336;21.182;2022-09-09T11:46:08;15.10;86.70
17066;DHT22;23120;52.336;21.182;2022-09-09T11:48:39;15.10;85.40
17066;DHT22;23120;52.336;21.182;2022-09-09T11:51:10;15.10;86.40
17066;DHT22;23120;52.336;21.182;2022-09-09T11:53:48;15.10;85.90
17066;DHT22;23120;52.336;21.182;2022-09-09T11:56:25;15.10;85.90
17066;DHT22;23120;52.336;21.182;2022-09-09T11:58:58;15.10;85.90
17066;DHT22;23120;52.336;21.182;2022-09-09T12:01:40;15.10;86.40
17066;DHT22;23120;52.336;21.182;2022-09-09T12:04:16;15.10;86.40
17066;DHT22;23120;52.336;21.182;2022-09-09T12:06:45;15.20;85.70
17066;DHT22;23120;52.336;21.182;2022-09-09T12:09:19;15.20;86.70
17066;DHT22;23120;52.336;21.182;2022-09-09T12:11:50;15.20;86.20
17066;DHT22;23120;52.336;21.182;2022-09-09T12:14:22;15.20;86.10
17066;DHT22;23120;52.336;21.182;2022-09-09T12:16:49;15.20;86.00
17066;DHT22;23120;52.336;21.182;2022-09-09T12:19:19;15.20;87.00
17066;DHT22;23120;52.336;21.182;2022-09-09T12:21:54;15.20;86.10
17066;DHT22;23120;52.336;21.182;2022-09-09T12:24:30;15.20;86.00
17066;DHT22;23120;52.336;21.182;2022-09-09T12:27:04;15.30;86.60
17066;DHT22;23120;52.336;21.182;2022-09-09T12:29:40;15.30;87.40
17066;DHT22;23120;52.336;21.182;2022-09-09T12:32:11;15.30;86.40
17066;DHT22;23120;52.336;21.182;2022-09-09T12:34:42;15.30;86.20
17066;DHT22;23120;52.336;21.182;2022-09-09T12:37:27;15.30;87.10
17066;DHT22;23120;52.336;21.182;2022-09-09T12:39:55;15.30;86.50
17066;DHT22;23120;52.336;21.182;2022-09-09T12:42:23;15.30;85.90
17066;DHT22;23120;52.336;21.182;2022-09-09T12:44:52;15.30;86.30
17066;DHT22;23120;52.336;21.182;2022-09-09T12:47:20;15.30;86.40
17066;DHT22;23120;52.336;21.182;2022-09-09T12:49:50;15.30;86.20
17066;DHT22;23120;52.336;21.182;2022-09-09T12:52:23;15.30;86.10
17066;DHT22;23120;52.336;21.182;2022-09-09T12:54:52;15.30;86.10
17066;DHT22;23120;52.336;21.182;2022-09-09T12:57:22;15.30;87.20
17066;DHT22;23120;52.336;21.182;2022-09-09T12:59:51;15.30;86.30
17066;DHT22;23120;52.336;21.182;2022-09-09T13:02:20;15.30;86.90
17066;DHT22;23120;52.336;21.182;2022-09-09T13:04:48;15.30;86.90
17066;DHT22;23120;52.336;21.182;2022-09-09T13:07:18;15.30;86.30
17066;DHT22;23120;52.336;21.182;2022-09-09T13:09:46;15.30;87.80
17066;DHT22;23120;52.336;21.182;2022-09-09T13:12:16;15.30;86.80
17066;DHT22;23120;52.336;21.182;2022-09-09T13:14:47;15.40;87.00
17066;DHT22;23120;52.336;21.182;2022-09-09T13:17:21;15.50;87.10
17066;DHT22;23120;52.336;21.182;2022-09-09T13:19:49;15.40;87.10
17066;DHT22;23120;52.336;21.182;2022-09-09T13:22:23;15.50;86.30
17066;DHT22;23120;52.336;21.182;2022-09-09T13:25:04;15.50;86.00
17066;DHT22;23120;52.336;21.182;2022-09-09T13:27:33;15.60;86.00
17066;DHT22;23120;52.336;21.182;2022-09-09T13:30:19;15.60;87.40
17066;DHT22;23120;52.336;21.182;2022-09-09T13:32:48;15.60;86.20
17066;DHT22;23120;52.336;21.182;2022-09-09T13:35:26;15.60;85.50
17066;DHT22;23120;52.336;21.182;2022-09-09T13:37:54;15.60;85.50
17066;DHT22;23120;52.336;21.182;2022-09-09T13:40:22;15.70;85.10
17066;DHT22;23120;52.336;21.182;2022-09-09T13:42:52;15.70;85.60
17066;DHT22;23120;52.336;21.182;2022-09-09T13:45:22;15.70;85.90
17066;DHT22;23120;52.336;21.182;2022-09-09T13:47:52;15.80;86.10
17066;DHT22;23120;52.336;21.182;2022-09-09T13:50:22;15.80;85.60
17066;DHT22;23120;52.336;21.182;2022-09-09T13:52:49;15.80;86.20
17066;DHT22;23120;52.336;21.182;2022-09-09T13:55:18;15.80;85.60
17066;DHT22;23120;52.336;21.182;2022-09-09T13:57:51;15.80;85.70
17066;DHT22;23120;52.336;21.182;2022-09-09T14:00:18;15.80;85.50
17066;DHT22;23120;52.336;21.182;2022-09-09T14:02:45;15.80;85.80
17066;DHT22;23120;52.336;21.182;2022-09-09T14:05:12;15.80;85.10
17066;DHT22;23120;52.336;21.182;2022-09-09T14:07:39;15.90;86.00
17066;DHT22;23120;52.336;21.182;2022-09-09T14:10:07;15.80;84.80
17066;DHT22;23120;52.336;21.182;2022-09-09T14:12:36;15.70;84.70
17066;DHT22;23120;52.336;21.182;2022-09-09T14:15:03;15.70;85.40
17066;DHT22;23120;52.336;21.182;2022-09-09T14:17:30;15.70;85.50
17066;DHT22;23120;52.336;21.182;2022-09-09T14:19:57;15.70;84.80
17066;DHT22;23120;52.336;21.182;2022-09-09T14:22:24;15.70;85.20
17066;DHT22;23120;52.336;21.182;2022-09-09T14:24:51;15.70;85.40
17066;DHT22;23120;52.336;21.182;2022-09-09T14:27:18;15.60;85.00
17066;DHT22;23120;52.336;21.182;2022-09-09T14:29:46;15.60;84.70
17066;DHT22;23120;52.336;21.182;2022-09-09T14:32:13;15.60;84.60
17066;DHT22;23120;52.336;21.182;2022-09-09T14:34:40;15.60;85.50
17066;DHT22;23120;52.336;21.182;2022-09-09T14:37:07;15.60;85.00
17066;DHT22;23120;52.336;21.182;2022-09-09T14:39:33;15.60;84.90
17066;DHT22;23120;52.336;21.182;2022-09-09T14:42:00;15.60;85.00
17066;DHT22;23120;52.336;21.182;2022-09-09T14:44:27;15.50;84.60
17066;DHT22;23120;52.336;21.182;2022-09-09T14:46:56;15.50;85.40
17066;DHT22;23120;52.336;21.182;2022-09-09T14:49:24;15.50;84.90
17066;DHT22;23120;52.336;21.182;2022-09-09T14:51:50;15.50;85.00
17066;DHT22;23120;52.336;21.182;2022-09-09T14:54:17;15.50;85.10
17066;DHT22;23120;52.336;21.182;2022-09-09T14:56:44;15.50;85.10
17066;DHT22;23120;52.336;21.182;2022-09-09T14:59:11;15.50;85.70
17066;DHT22;23120;52.336;21.182;2022-09-09T15:01:38;15.50;86.20
17066;DHT22;23120;52.336;21.182;2022-09-09T15:04:06;15.50;85.40
17066;DHT22;23120;52.336;21.182;2022-09-09T15:06:34;15.50;86.20
17066;DHT22;23120;52.336;21.182;2022-09-09T15:09:04;15.50;85.60
17066;DHT22;23120;52.336;21.182;2022-09-09T15:11:33;15.50;85.30
17066;DHT22;23120;52.336;21.182;2022-09-09T15:14:03;15.50;85.40
17066;DHT22;23120;52.336;21.182;2022-09-09T15:16:30;15.50;85.50
17066;DHT22;23120;52.336;21.182;2022-09-09T15:18:59;15.50;85.60
17066;DHT22;23120;52.336;21.182;2022-09-09T15:21:29;15.50;85.30
17066;DHT22;23120;52.336;21.182;2022-09-09T15:23:57;15.60;85.00
17066;DHT22;23120;52.336;21.182;2022-09-09T15:26:24;15.50;85.30
17066;DHT22;23120;52.336;21.182;2022-09-09T15:28:51;15.50;84.90
17066;DHT22;23120;52.336;21.182;2022-09-09T15:31:20;15.50;85.10
17066;DHT22;23120;52.336;21.182;2022-09-09T15:33:47;15.50;85.50
17066;DHT22;23120;52.336;21.182;2022-09-09T15:36:16;15.50;85.30
17066;DHT22;23120;52.336;21.182;2022-09-09T15:38:45;15.50;85.50
17066;DHT22;23120;52.336;21.182;2022-09-09T15:41:12;15.50;85.60
17066;DHT22;23120;52.336;21.182;2022-09-09T15:43:42;15.50;85.50
17066;DHT22;23120;52.336;21.182;2022-09-09T15:46:26;15.50;85.40